createdAt,value
2022-12-25T00:01:51.921Z,999.71
2022-12-25T00:06:51.921Z,999.78
2022-12-25T00:11:51.857Z,999.79
2022-12-25T00:16:51.805Z,999.82
2022-12-25T00:21:51.740Z,999.75
2022-12-25T00:26:51.698Z,999.86
2022-12-25T00:31:51.779Z,999.71
2022-12-25T00:36:51.581Z,999.71
2022-12-25T00:41:51.654Z,999.70
2022-12-25T00:46:51.530Z,999.64
2022-12-25T00:51:51.433Z,999.73
2022-12-25T00:56:51.342Z,999.66
2022-12-25T01:01:51.427Z,999.73
2022-12-25T01:06:51.444Z,999.75
2022-12-25T01:11:51.287Z,999.64
2022-12-25T01:16:51.338Z,999.56
2022-12-25T01:21:51.116Z,999.66
2022-12-25T01:26:51.019Z,999.73
2022-12-25T01:31:51.069Z,999.70
2022-12-25T01:36:50.946Z,999.76
2022-12-25T01:41:50.886Z,999.69
2022-12-25T01:46:50.931Z,999.59
2022-12-25T01:51:50.918Z,999.45
2022-12-25T01:56:50.716Z,999.40
2022-12-25T02:01:50.945Z,999.53
2022-12-25T02:06:50.744Z,999.65
2022-12-25T02:11:50.659Z,999.67
2022-12-25T02:16:58.124Z,999.74
2022-12-25T02:21:51.424Z,999.74
2022-12-25T02:26:50.382Z,999.73
2022-12-25T02:31:50.336Z,999.78
2022-12-25T02:36:50.279Z,999.84
2022-12-25T02:41:50.301Z,999.75
2022-12-25T02:46:50.263Z,999.75
2022-12-25T02:51:50.197Z,999.65
2022-12-25T02:56:50.099Z,999.70
2022-12-25T03:01:50.089Z,999.70
2022-12-25T03:06:50.048Z,999.79
2022-12-25T03:11:49.866Z,999.71
2022-12-25T03:16:49.888Z,999.67
2022-12-25T03:21:49.763Z,999.60
2022-12-25T03:26:49.713Z,999.56
2022-12-25T03:31:49.780Z,999.57
2022-12-25T03:36:49.755Z,999.48
2022-12-25T03:41:49.556Z,999.33
2022-12-25T03:46:49.530Z,999.27
2022-12-25T03:51:49.523Z,999.23
2022-12-25T03:56:50.437Z,999.22
2022-12-25T04:01:49.475Z,999.02
2022-12-25T04:06:49.291Z,998.86
2022-12-25T04:11:49.220Z,998.95
2022-12-25T04:16:49.180Z,998.95
2022-12-25T04:21:49.219Z,999.15
2022-12-25T04:26:49.133Z,999.19
2022-12-25T04:31:48.972Z,999.14
2022-12-25T04:36:48.959Z,999.11
2022-12-25T04:41:49.082Z,999.10
2022-12-25T04:46:49.071Z,999.14
2022-12-25T04:51:48.785Z,998.99
2022-12-25T04:56:48.744Z,998.91
2022-12-25T05:01:48.699Z,998.85
2022-12-25T05:06:48.634Z,998.85
2022-12-25T05:11:48.550Z,998.89
2022-12-25T05:16:48.632Z,998.89
2022-12-25T05:21:48.585Z,998.97
2022-12-25T05:26:48.396Z,998.87
2022-12-25T05:31:48.515Z,998.82
2022-12-25T05:36:48.412Z,998.71
2022-12-25T05:41:48.351Z,998.64
2022-12-25T05:46:48.283Z,998.61
2022-12-25T05:51:48.139Z,998.58
2022-12-25T05:56:48.088Z,998.65
2022-12-25T06:01:48.222Z,998.67
2022-12-25T06:06:47.940Z,998.67
2022-12-25T06:11:48.071Z,998.61
2022-12-25T06:16:48.101Z,998.53
2022-12-25T06:21:47.808Z,998.45
2022-12-25T06:26:47.804Z,998.37
2022-12-25T06:31:47.845Z,998.27
2022-12-25T06:36:48.688Z,998.21
2022-12-25T06:41:47.546Z,998.11
2022-12-25T06:46:47.653Z,997.98
2022-12-25T06:51:47.455Z,997.99
2022-12-25T06:56:47.435Z,997.86
2022-12-25T07:01:47.554Z,997.89
2022-12-25T07:06:47.330Z,997.88
2022-12-25T07:11:47.384Z,997.91
2022-12-25T07:16:47.357Z,997.71
2022-12-25T07:21:47.105Z,997.52
2022-12-25T07:26:47.092Z,997.52
2022-12-25T07:31:47.213Z,997.49
2022-12-25T07:36:46.965Z,997.37
2022-12-25T07:41:46.946Z,997.41
2022-12-25T07:46:46.859Z,997.34
2022-12-25T07:51:46.979Z,997.35
2022-12-25T07:56:46.815Z,997.19
2022-12-25T08:01:46.842Z,997.05
2022-12-25T08:06:46.650Z,997.07
2022-12-25T08:11:46.578Z,997.24
2022-12-25T08:16:46.582Z,997.12
2022-12-25T08:21:46.448Z,997.28
2022-12-25T08:26:46.445Z,997.16
2022-12-25T08:31:49.759Z,997.29
2022-12-25T08:36:46.275Z,997.18
2022-12-25T08:41:46.260Z,996.91
2022-12-25T08:46:46.251Z,996.81
2022-12-25T08:51:46.123Z,997.00
2022-12-25T08:56:46.162Z,997.49
2022-12-25T09:01:46.126Z,997.63
2022-12-25T09:06:45.998Z,997.55
2022-12-25T09:11:45.919Z,997.11
2022-12-25T09:16:45.939Z,997.17
2022-12-25T09:21:45.905Z,997.04
2022-12-25T09:26:47.839Z,997.02
2022-12-25T09:31:45.717Z,996.97
2022-12-25T09:36:45.830Z,997.41
2022-12-25T09:41:45.728Z,997.40
2022-12-25T09:46:45.653Z,997.33
2022-12-25T09:51:45.479Z,997.52
2022-12-25T09:56:45.417Z,997.60
2022-12-25T10:01:45.597Z,997.57
2022-12-25T10:06:45.329Z,997.53
2022-12-25T10:11:45.306Z,997.43
2022-12-25T10:16:45.330Z,997.20
2022-12-25T10:21:45.165Z,997.28
2022-12-25T10:26:45.128Z,997.02
2022-12-25T10:31:45.165Z,996.69
2022-12-25T10:36:45.048Z,996.67
2022-12-25T10:41:45.012Z,996.69
2022-12-25T10:46:45.100Z,996.59
2022-12-25T10:51:44.989Z,996.63
2022-12-25T10:56:44.789Z,996.56
2022-12-25T11:01:44.729Z,996.43
2022-12-25T11:06:44.832Z,996.37
2022-12-25T11:11:44.797Z,996.37
2022-12-25T11:16:44.645Z,996.43
2022-12-25T11:21:44.513Z,996.32
2022-12-25T11:26:44.455Z,996.26
2022-12-25T11:31:44.448Z,996.05
2022-12-25T11:36:44.356Z,995.71
2022-12-25T11:41:44.301Z,995.54
2022-12-25T11:46:44.409Z,995.27
2022-12-25T11:51:44.289Z,995.11
2022-12-25T11:56:44.133Z,995.21
2022-12-25T12:01:44.216Z,995.11
2022-12-25T12:06:44.017Z,995.08
2022-12-25T12:11:43.963Z,994.99
2022-12-25T12:16:43.968Z,995.08
2022-12-25T12:21:43.917Z,994.86
2022-12-25T12:26:45.922Z,994.83
2022-12-25T12:31:43.766Z,994.77
2022-12-25T12:36:43.677Z,994.79
2022-12-25T12:41:43.704Z,994.77
2022-12-25T12:46:43.862Z,994.80
2022-12-25T12:51:43.534Z,994.71
2022-12-25T12:56:43.489Z,994.58
2022-12-25T13:01:43.573Z,994.44
2022-12-25T13:06:43.392Z,994.37
2022-12-25T13:11:43.326Z,994.39
2022-12-25T13:16:43.270Z,994.31
2022-12-25T13:21:43.193Z,994.26
2022-12-25T13:26:43.256Z,994.15
2022-12-25T13:31:43.277Z,994.13
2022-12-25T13:36:43.097Z,994.07
2022-12-25T13:41:43.120Z,993.98
2022-12-25T13:46:42.973Z,993.92
2022-12-25T13:51:42.915Z,993.98
2022-12-25T13:56:42.853Z,993.97
2022-12-25T14:01:42.883Z,994.04
2022-12-25T14:06:42.802Z,993.90
2022-12-25T14:11:42.716Z,993.92
2022-12-25T14:16:42.836Z,993.87
2022-12-25T14:21:42.603Z,993.81
2022-12-25T14:26:42.485Z,993.79
2022-12-25T14:31:42.542Z,993.73
2022-12-25T14:36:42.389Z,993.70
2022-12-25T14:41:42.373Z,993.72
2022-12-25T14:46:42.357Z,993.80
2022-12-25T14:51:42.279Z,993.83
2022-12-25T14:56:42.226Z,993.81
2022-12-25T15:01:42.367Z,993.76
2022-12-25T15:06:42.356Z,993.87
2022-12-25T15:11:42.059Z,993.86
2022-12-25T15:16:42.081Z,993.90
2022-12-25T15:21:41.946Z,993.68
2022-12-25T15:26:41.966Z,993.55
2022-12-25T15:31:42.063Z,993.52
2022-12-25T15:36:41.781Z,993.37
2022-12-25T15:41:41.757Z,993.41
2022-12-25T15:46:41.746Z,993.37
2022-12-25T15:51:41.635Z,993.28
2022-12-25T15:56:43.719Z,993.30
2022-12-25T16:01:41.821Z,993.42
2022-12-25T16:06:41.593Z,993.35
2022-12-25T16:11:42.449Z,993.41
2022-12-25T16:16:42.582Z,993.27
2022-12-25T16:21:41.361Z,993.15
2022-12-25T16:26:41.232Z,993.11
2022-12-25T16:31:41.202Z,993.10
2022-12-25T16:36:41.102Z,993.08
2022-12-25T16:41:41.036Z,993.14
2022-12-25T16:46:41.035Z,993.19
2022-12-25T16:51:40.913Z,993.16
2022-12-25T16:56:40.852Z,993.05
2022-12-25T17:01:40.954Z,993.09
2022-12-25T17:06:40.919Z,993.08
2022-12-25T17:11:40.715Z,993.00
2022-12-25T17:16:40.722Z,992.99
2022-12-25T17:21:40.600Z,993.09
2022-12-25T17:26:40.534Z,993.02
2022-12-25T17:31:40.607Z,993.12
2022-12-25T17:36:40.435Z,992.96
2022-12-25T17:41:40.389Z,993.20
2022-12-25T17:46:40.437Z,993.25
2022-12-25T17:51:40.236Z,993.16
2022-12-25T17:56:41.337Z,993.10
2022-12-25T18:01:40.447Z,993.16
2022-12-25T18:06:40.181Z,993.19
2022-12-25T18:11:40.161Z,993.17
2022-12-25T18:16:40.008Z,993.18
2022-12-25T18:21:39.926Z,993.12
2022-12-25T18:26:39.939Z,993.20
2022-12-25T18:31:40.077Z,993.21
2022-12-25T18:36:39.906Z,993.28
2022-12-25T18:41:39.734Z,993.15
2022-12-25T18:46:39.802Z,993.16
2022-12-25T18:51:39.735Z,993.20
2022-12-25T18:56:39.587Z,993.12
2022-12-25T19:01:39.713Z,993.10
2022-12-25T19:06:39.461Z,993.21
2022-12-25T19:11:45.891Z,993.27
2022-12-25T19:16:40.422Z,993.35
2022-12-25T19:21:39.355Z,993.30
2022-12-25T19:26:39.286Z,993.29
2022-12-25T19:31:39.341Z,993.28
2022-12-25T19:36:39.130Z,993.36
2022-12-25T19:41:39.053Z,993.48
2022-12-25T19:46:39.017Z,993.55
2022-12-25T19:51:39.048Z,993.66
2022-12-25T19:56:38.890Z,993.67
2022-12-25T20:01:39.035Z,993.65
2022-12-25T20:06:38.837Z,993.78
2022-12-25T20:11:38.748Z,993.71
2022-12-25T20:16:38.792Z,993.64
2022-12-25T20:21:38.614Z,993.66
2022-12-25T20:26:38.606Z,993.65
2022-12-25T20:31:38.654Z,993.70
2022-12-25T20:36:38.516Z,993.73
2022-12-25T20:41:38.419Z,993.65
2022-12-25T20:46:38.463Z,993.72
2022-12-25T20:51:38.333Z,993.84
2022-12-25T20:56:38.297Z,993.77
2022-12-25T21:01:38.246Z,993.77
2022-12-25T21:06:38.265Z,993.78
2022-12-25T21:11:38.073Z,993.75
2022-12-25T21:16:38.174Z,993.70
2022-12-25T21:21:37.971Z,993.78
2022-12-25T21:26:40.737Z,993.68
2022-12-25T21:31:39.098Z,993.76
2022-12-25T21:36:38.009Z,993.76
2022-12-25T21:41:37.807Z,993.70
2022-12-25T21:46:38.805Z,993.68
2022-12-25T21:51:37.812Z,993.86
2022-12-25T21:56:43.387Z,994.14
2022-12-25T22:01:38.723Z,994.28
2022-12-25T22:06:37.565Z,994.14
2022-12-25T22:11:37.579Z,994.21
2022-12-25T22:16:37.532Z,994.34
2022-12-25T22:21:37.350Z,994.19
2022-12-25T22:26:37.466Z,994.29
2022-12-25T22:31:42.716Z,994.35
2022-12-25T22:36:38.278Z,994.36
2022-12-25T22:41:37.279Z,994.42
2022-12-25T22:46:38.277Z,994.41
2022-12-25T22:51:37.374Z,994.41
2022-12-25T22:56:37.033Z,994.43
2022-12-25T23:01:37.106Z,994.41
2022-12-25T23:06:37.036Z,994.52
2022-12-25T23:11:36.961Z,994.56
2022-12-25T23:16:37.090Z,994.60
2022-12-25T23:21:37.004Z,994.59
2022-12-25T23:26:36.791Z,994.56
2022-12-25T23:31:39.822Z,994.61
2022-12-25T23:36:36.647Z,994.57
2022-12-25T23:41:36.785Z,994.50
2022-12-25T23:46:42.007Z,994.48
2022-12-25T23:51:44.575Z,994.44
2022-12-25T23:56:36.473Z,994.47
